首页
METAR-TAF:

METAR-TAF

机场 :

York Airport

约克, 宾夕法尼亚州, 美国

纬度: 39-55-10N, 经度: 076-52-37W, 海拔: 146米

当前天气观测

该预报发布于1小时和7分钟前的17:53 UTC
风速10节,风向北转西北
温度 -2°C
湿度 39%
气压 1028 hPa
能見度: 16.1公里
天空无云

METAR: KTHV 201753Z AUTO 33010KT 10SM CLR M02/M14 A3035 RMK AO2 SLP288 T10171139 11017 21067 58002

时间: 14:00 (19:00 UTC)


TAF: 丢失

超过4000个机场的气象观测和天气预报(METAR&TAF报告)。

可查询的气象台以黄色和红色小点在地图上表示。

将鼠标移到小点上方,可查看气象台名称。

然后点击查看天气观测和预报。

如需切换地图:点击带黑十字的绿色按钮放大地图;点击带横线的绿色按钮缩小地图;或者点击绿色箭头查看邻近地区的地图。


METAR-TAF: